sensor_id;sensor_type;location;lat;lon;timestamp;pressure;altitude;pressure_sealevel;temperature;humidity
64253;BME280;50592;52.958;-7.470;2023-02-14T00:01:21;101344.59;;;6.92;100.00
64253;BME280;50592;52.958;-7.470;2023-02-14T00:03:47;101342.78;;;6.93;100.00
64253;BME280;50592;52.958;-7.470;2023-02-14T00:06:14;101345.41;;;6.93;100.00
64253;BME280;50592;52.958;-7.470;2023-02-14T00:08:41;101336.31;;;6.99;100.00
64253;BME280;50592;52.958;-7.470;2023-02-14T00:11:09;101343.44;;;6.97;100.00
64253;BME280;50592;52.958;-7.470;2023-02-14T00:13:35;101350.28;;;6.99;100.00
64253;BME280;50592;52.958;-7.470;2023-02-14T00:16:01;101348.50;;;7.00;100.00
64253;BME280;50592;52.958;-7.470;2023-02-14T00:18:27;101345.13;;;6.98;100.00
64253;BME280;50592;52.958;-7.470;2023-02-14T00:21:13;101336.50;;;6.95;100.00
64253;BME280;50592;52.958;-7.470;2023-02-14T00:23:39;101349.00;;;6.92;100.00
64253;BME280;50592;52.958;-7.470;2023-02-14T00:26:12;101345.63;;;6.90;100.00
64253;BME280;50592;52.958;-7.470;2023-02-14T00:28:39;101349.47;;;6.84;100.00
64253;BME280;50592;52.958;-7.470;2023-02-14T00:31:04;101354.94;;;6.81;100.00
64253;BME280;50592;52.958;-7.470;2023-02-14T00:33:30;101351.34;;;6.82;100.00
64253;BME280;50592;52.958;-7.470;2023-02-14T00:35:56;101336.75;;;6.78;100.00
64253;BME280;50592;52.958;-7.470;2023-02-14T00:38:22;101330.91;;;6.73;100.00
64253;BME280;50592;52.958;-7.470;2023-02-14T00:40:48;101325.66;;;6.73;100.00
64253;BME280;50592;52.958;-7.470;2023-02-14T00:43:13;101326.16;;;6.65;100.00
64253;BME280;50592;52.958;-7.470;2023-02-14T00:45:39;101320.72;;;6.68;100.00
64253;BME280;50592;52.958;-7.470;2023-02-14T00:48:05;101320.41;;;6.73;100.00
64253;BME280;50592;52.958;-7.470;2023-02-14T00:50:31;101319.41;;;6.75;100.00
64253;BME280;50592;52.958;-7.470;2023-02-14T00:52:56;101318.63;;;6.73;100.00
64253;BME280;50592;52.958;-7.470;2023-02-14T00:55:23;101313.28;;;6.75;100.00
64253;BME280;50592;52.958;-7.470;2023-02-14T00:57:48;101309.59;;;6.77;100.00
64253;BME280;50592;52.958;-7.470;2023-02-14T01:00:14;101307.19;;;6.74;100.00
64253;BME280;50592;52.958;-7.470;2023-02-14T01:02:40;101301.91;;;6.74;100.00
64253;BME280;50592;52.958;-7.470;2023-02-14T01:05:06;101319.41;;;6.75;100.00
64253;BME280;50592;52.958;-7.470;2023-02-14T01:07:32;101299.38;;;6.73;100.00
64253;BME280;50592;52.958;-7.470;2023-02-14T01:09:58;101295.09;;;6.72;100.00
64253;BME280;50592;52.958;-7.470;2023-02-14T01:12:24;101282.88;;;6.70;100.00
64253;BME280;50592;52.958;-7.470;2023-02-14T01:14:50;101280.81;;;6.76;100.00
64253;BME280;50592;52.958;-7.470;2023-02-14T01:17:18;101286.72;;;6.79;100.00
64253;BME280;50592;52.958;-7.470;2023-02-14T01:19:46;101281.06;;;6.86;100.00
64253;BME280;50592;52.958;-7.470;2023-02-14T01:22:12;101285.63;;;6.97;100.00
64253;BME280;50592;52.958;-7.470;2023-02-14T01:24:37;101279.41;;;6.98;100.00
64253;BME280;50592;52.958;-7.470;2023-02-14T01:27:03;101275.97;;;6.97;100.00
64253;BME280;50592;52.958;-7.470;2023-02-14T01:29:31;101274.91;;;7.00;100.00
64253;BME280;50592;52.958;-7.470;2023-02-14T01:31:56;101265.78;;;7.05;100.00
64253;BME280;50592;52.958;-7.470;2023-02-14T01:34:23;101269.03;;;7.09;100.00
64253;BME280;50592;52.958;-7.470;2023-02-14T01:36:49;101272.63;;;7.08;100.00
64253;BME280;50592;52.958;-7.470;2023-02-14T01:39:15;101261.91;;;7.11;100.00
64253;BME280;50592;52.958;-7.470;2023-02-14T01:41:46;101254.66;;;7.15;100.00
64253;BME280;50592;52.958;-7.470;2023-02-14T01:46:44;101242.13;;;7.18;100.00
64253;BME280;50592;52.958;-7.470;2023-02-14T01:49:20;101237.41;;;7.24;100.00
64253;BME280;50592;52.958;-7.470;2023-02-14T01:51:54;101239.41;;;7.20;100.00
64253;BME280;50592;52.958;-7.470;2023-02-14T01:54:24;101223.41;;;7.23;100.00
64253;BME280;50592;52.958;-7.470;2023-02-14T01:56:55;101212.91;;;7.23;100.00
64253;BME280;50592;52.958;-7.470;2023-02-14T01:59:25;101225.13;;;7.24;100.00
64253;BME280;50592;52.958;-7.470;2023-02-14T02:01:53;101220.78;;;7.23;100.00
64253;BME280;50592;52.958;-7.470;2023-02-14T02:04:23;101220.69;;;7.25;100.00
64253;BME280;50592;52.958;-7.470;2023-02-14T02:06:57;101217.84;;;7.28;100.00
64253;BME280;50592;52.958;-7.470;2023-02-14T02:09:31;101214.41;;;7.27;100.00
64253;BME280;50592;52.958;-7.470;2023-02-14T02:11:59;101211.47;;;7.32;100.00
64253;BME280;50592;52.958;-7.470;2023-02-14T02:14:27;101209.69;;;7.32;100.00
64253;BME280;50592;52.958;-7.470;2023-02-14T02:19:47;101202.81;;;7.43;100.00
64253;BME280;50592;52.958;-7.470;2023-02-14T02:25:08;101189.16;;;7.51;100.00
64253;BME280;50592;52.958;-7.470;2023-02-14T02:36:41;101180.19;;;7.66;100.00
64253;BME280;50592;52.958;-7.470;2023-02-14T02:39:32;101188.28;;;7.63;100.00
64253;BME280;50592;52.958;-7.470;2023-02-14T02:42:23;101175.03;;;7.65;100.00
64253;BME280;50592;52.958;-7.470;2023-02-14T02:45:12;101180.28;;;7.65;100.00
64253;BME280;50592;52.958;-7.470;2023-02-14T02:47:57;101166.81;;;7.69;100.00
64253;BME280;50592;52.958;-7.470;2023-02-14T02:53:25;101178.09;;;7.72;100.00
64253;BME280;50592;52.958;-7.470;2023-02-14T02:56:04;101183.97;;;7.75;100.00
64253;BME280;50592;52.958;-7.470;2023-02-14T02:58:54;101183.66;;;7.80;100.00
64253;BME280;50592;52.958;-7.470;2023-02-14T03:01:38;101187.63;;;7.86;100.00
64253;BME280;50592;52.958;-7.470;2023-02-14T03:04:09;101176.06;;;7.88;100.00
64253;BME280;50592;52.958;-7.470;2023-02-14T03:06:55;101170.91;;;7.87;100.00
64253;BME280;50592;52.958;-7.470;2023-02-14T03:12:40;101171.28;;;7.93;100.00
64253;BME280;50592;52.958;-7.470;2023-02-14T03:31:57;101141.91;;;8.00;100.00
64253;BME280;50592;52.958;-7.470;2023-02-14T03:34:35;101149.47;;;8.04;100.00
64253;BME280;50592;52.958;-7.470;2023-02-14T03:37:08;101133.56;;;8.06;100.00
64253;BME280;50592;52.958;-7.470;2023-02-14T03:40:02;101133.34;;;8.09;100.00
64253;BME280;50592;52.958;-7.470;2023-02-14T03:42:42;101132.41;;;8.10;100.00
64253;BME280;50592;52.958;-7.470;2023-02-14T03:45:12;101122.69;;;8.11;100.00
64253;BME280;50592;52.958;-7.470;2023-02-14T03:47:42;101135.03;;;8.10;100.00
64253;BME280;50592;52.958;-7.470;2023-02-14T03:50:16;101121.75;;;8.12;100.00
64253;BME280;50592;52.958;-7.470;2023-02-14T03:52:43;101121.66;;;8.13;100.00
64253;BME280;50592;52.958;-7.470;2023-02-14T03:55:14;101122.59;;;8.12;100.00
64253;BME280;50592;52.958;-7.470;2023-02-14T04:00:14;101121.75;;;8.12;100.00
64253;BME280;50592;52.958;-7.470;2023-02-14T04:02:44;101114.25;;;8.18;100.00
64253;BME280;50592;52.958;-7.470;2023-02-14T04:05:18;101124.78;;;8.18;100.00
64253;BME280;50592;52.958;-7.470;2023-02-14T04:07:48;101129.22;;;8.18;100.00
64253;BME280;50592;52.958;-7.470;2023-02-14T04:10:15;101125.63;;;8.19;100.00
64253;BME280;50592;52.958;-7.470;2023-02-14T04:12:41;101112.34;;;8.21;100.00
64253;BME280;50592;52.958;-7.470;2023-02-14T04:15:07;101110.44;;;8.23;100.00
64253;BME280;50592;52.958;-7.470;2023-02-14T04:17:34;101104.09;;;8.25;100.00
64253;BME280;50592;52.958;-7.470;2023-02-14T04:20:18;101104.94;;;8.26;100.00
64253;BME280;50592;52.958;-7.470;2023-02-14T04:22:44;101102.31;;;8.26;100.00
64253;BME280;50592;52.958;-7.470;2023-02-14T04:25:13;101096.59;;;8.32;100.00
64253;BME280;50592;52.958;-7.470;2023-02-14T04:27:39;101105.47;;;8.31;100.00
64253;BME280;50592;52.958;-7.470;2023-02-14T04:30:05;101104.50;;;8.32;100.00
64253;BME280;50592;52.958;-7.470;2023-02-14T04:32:31;101102.72;;;8.32;100.00
64253;BME280;50592;52.958;-7.470;2023-02-14T04:34:57;101105.13;;;8.36;100.00
64253;BME280;50592;52.958;-7.470;2023-02-14T04:37:23;101093.50;;;8.38;100.00
64253;BME280;50592;52.958;-7.470;2023-02-14T04:39:49;101100.56;;;8.38;100.00
64253;BME280;50592;52.958;-7.470;2023-02-14T04:42:15;101098.53;;;8.41;100.00
64253;BME280;50592;52.958;-7.470;2023-02-14T04:44:40;101091.25;;;8.45;100.00
64253;BME280;50592;52.958;-7.470;2023-02-14T04:47:07;101099.91;;;8.47;100.00
64253;BME280;50592;52.958;-7.470;2023-02-14T04:49:33;101085.66;;;8.50;100.00
64253;BME280;50592;52.958;-7.470;2023-02-14T04:51:59;101097.03;;;8.50;100.00
64253;BME280;50592;52.958;-7.470;2023-02-14T04:54:25;101100.38;;;8.52;100.00
64253;BME280;50592;52.958;-7.470;2023-02-14T04:56:50;101096.81;;;8.53;100.00
64253;BME280;50592;52.958;-7.470;2023-02-14T04:59:16;101101.88;;;8.56;100.00
64253;BME280;50592;52.958;-7.470;2023-02-14T05:01:42;101095.63;;;8.58;100.00
64253;BME280;50592;52.958;-7.470;2023-02-14T05:04:08;101093.75;;;8.60;100.00
64253;BME280;50592;52.958;-7.470;2023-02-14T05:06:34;101098.91;;;8.61;100.00
64253;BME280;50592;52.958;-7.470;2023-02-14T05:09:01;101091.22;;;8.69;100.00
64253;BME280;50592;52.958;-7.470;2023-02-14T05:11:28;101089.78;;;8.65;100.00
64253;BME280;50592;52.958;-7.470;2023-02-14T05:13:54;101099.38;;;8.66;100.00
64253;BME280;50592;52.958;-7.470;2023-02-14T05:16:20;101087.28;;;8.64;100.00
64253;BME280;50592;52.958;-7.470;2023-02-14T05:18:46;101095.19;;;8.64;100.00
64253;BME280;50592;52.958;-7.470;2023-02-14T05:21:12;101099.47;;;8.65;100.00
64253;BME280;50592;52.958;-7.470;2023-02-14T05:23:38;101091.22;;;8.69;100.00
64253;BME280;50592;52.958;-7.470;2023-02-14T05:26:04;101091.97;;;8.72;100.00
64253;BME280;50592;52.958;-7.470;2023-02-14T05:28:30;101088.50;;;8.71;100.00
64253;BME280;50592;52.958;-7.470;2023-02-14T05:30:56;101085.94;;;8.69;100.00
64253;BME280;50592;52.958;-7.470;2023-02-14T05:33:23;101087.19;;;8.77;100.00
64253;BME280;50592;52.958;-7.470;2023-02-14T05:35:49;101090.91;;;8.74;100.00
64253;BME280;50592;52.958;-7.470;2023-02-14T05:38:14;101088.50;;;8.83;100.00
64253;BME280;50592;52.958;-7.470;2023-02-14T05:40:41;101082.28;;;8.84;100.00
64253;BME280;50592;52.958;-7.470;2023-02-14T05:43:08;101104.19;;;8.84;100.00
64253;BME280;50592;52.958;-7.470;2023-02-14T05:45:34;101094.00;;;8.79;100.00
64253;BME280;50592;52.958;-7.470;2023-02-14T05:48:00;101099.91;;;8.83;100.00
64253;BME280;50592;52.958;-7.470;2023-02-14T05:50:27;101099.91;;;8.83;100.00
64253;BME280;50592;52.958;-7.470;2023-02-14T05:52:53;101094.28;;;8.88;100.00
64253;BME280;50592;52.958;-7.470;2023-02-14T05:55:19;101089.63;;;8.91;100.00
64253;BME280;50592;52.958;-7.470;2023-02-14T05:57:46;101088.78;;;8.91;100.00
64253;BME280;50592;52.958;-7.470;2023-02-14T06:00:13;101091.41;;;8.91;100.00
64253;BME280;50592;52.958;-7.470;2023-02-14T06:02:39;101092.25;;;8.91;100.00
64253;BME280;50592;52.958;-7.470;2023-02-14T06:05:05;101095.72;;;8.92;100.00
64253;BME280;50592;52.958;-7.470;2023-02-14T06:07:31;101096.56;;;8.92;100.00
64253;BME280;50592;52.958;-7.470;2023-02-14T06:09:57;101093.56;;;8.97;100.00
64253;BME280;50592;52.958;-7.470;2023-02-14T06:12:23;101093.56;;;8.97;100.00
64253;BME280;50592;52.958;-7.470;2023-02-14T06:14:49;101092.50;;;9.00;100.00
64253;BME280;50592;52.958;-7.470;2023-02-14T06:17:14;101092.16;;;9.04;100.00
64253;BME280;50592;52.958;-7.470;2023-02-14T06:19:40;101092.50;;;9.00;100.00
64253;BME280;50592;52.958;-7.470;2023-02-14T06:22:08;101088.19;;;8.99;100.00
64253;BME280;50592;52.958;-7.470;2023-02-14T06:24:33;101089.88;;;9.00;100.00
64253;BME280;50592;52.958;-7.470;2023-02-14T06:26:59;101084.69;;;8.98;100.00
64253;BME280;50592;52.958;-7.470;2023-02-14T06:29:26;101084.47;;;9.01;100.00
64253;BME280;50592;52.958;-7.470;2023-02-14T06:31:51;101085.41;;;9.00;100.00
64253;BME280;50592;52.958;-7.470;2023-02-14T06:34:17;101090.56;;;9.02;100.00
64253;BME280;50592;52.958;-7.470;2023-02-14T06:36:43;101086.16;;;9.02;100.00
64253;BME280;50592;52.958;-7.470;2023-02-14T06:39:09;101079.91;;;9.03;100.00
64253;BME280;50592;52.958;-7.470;2023-02-14T06:41:35;101075.59;;;9.02;100.00
64253;BME280;50592;52.958;-7.470;2023-02-14T06:44:00;101079.78;;;9.05;100.00
64253;BME280;50592;52.958;-7.470;2023-02-14T06:46:26;101080.53;;;9.07;100.00
64253;BME280;50592;52.958;-7.470;2023-02-14T06:48:52;101079.56;;;9.08;100.00
64253;BME280;50592;52.958;-7.470;2023-02-14T06:51:18;101082.91;;;9.10;100.00
64253;BME280;50592;52.958;-7.470;2023-02-14T06:53:43;101081.94;;;9.11;100.00
64253;BME280;50592;52.958;-7.470;2023-02-14T06:56:09;101109.06;;;9.13;100.00
64253;BME280;50592;52.958;-7.470;2023-02-14T06:58:35;101100.28;;;9.13;100.00
64253;BME280;50592;52.958;-7.470;2023-02-14T07:01:01;101094.19;;;9.12;100.00
64253;BME280;50592;52.958;-7.470;2023-02-14T07:03:27;101095.50;;;9.18;100.00
64253;BME280;50592;52.958;-7.470;2023-02-14T07:05:53;101095.50;;;9.18;100.00
64253;BME280;50592;52.958;-7.470;2023-02-14T07:08:19;101099.13;;;9.17;100.00
64253;BME280;50592;52.958;-7.470;2023-02-14T07:10:45;101094.53;;;9.19;100.00
64253;BME280;50592;52.958;-7.470;2023-02-14T07:13:11;101106.91;;;9.18;100.00
64253;BME280;50592;52.958;-7.470;2023-02-14T07:15:37;101101.50;;;9.20;100.00
64253;BME280;50592;52.958;-7.470;2023-02-14T07:18:04;101099.81;;;9.19;100.00
64253;BME280;50592;52.958;-7.470;2023-02-14T07:20:29;101103.31;;;9.20;100.00
64253;BME280;50592;52.958;-7.470;2023-02-14T07:22:55;101094.19;;;9.24;100.00
64253;BME280;50592;52.958;-7.470;2023-02-14T07:25:21;101100.53;;;9.21;100.00
64253;BME280;50592;52.958;-7.470;2023-02-14T07:27:48;101091.53;;;9.24;100.00
64253;BME280;50592;52.958;-7.470;2023-02-14T07:30:13;101096.00;;;9.23;100.00
64253;BME280;50592;52.958;-7.470;2023-02-14T07:32:40;101107.38;;;9.24;100.00
64253;BME280;50592;52.958;-7.470;2023-02-14T07:35:06;101107.16;;;9.27;100.00
64253;BME280;50592;52.958;-7.470;2023-02-14T07:37:33;101115.06;;;9.27;100.00
64253;BME280;50592;52.958;-7.470;2023-02-14T07:40:00;101112.44;;;9.27;100.00
64253;BME280;50592;52.958;-7.470;2023-02-14T07:42:26;101107.75;;;9.30;100.00
64253;BME280;50592;52.958;-7.470;2023-02-14T07:44:53;101107.03;;;9.28;100.00
64253;BME280;50592;52.958;-7.470;2023-02-14T07:47:18;101114.84;;;9.30;100.00
64253;BME280;50592;52.958;-7.470;2023-02-14T07:49:44;101113.75;;;9.33;100.00
64253;BME280;50592;52.958;-7.470;2023-02-14T07:52:10;101116.50;;;9.31;100.00
64253;BME280;50592;52.958;-7.470;2023-02-14T07:54:36;101115.53;;;9.32;100.00
64253;BME280;50592;52.958;-7.470;2023-02-14T07:57:04;101114.47;;;9.35;100.00
64253;BME280;50592;52.958;-7.470;2023-02-14T07:59:30;101121.53;;;9.34;100.00
64253;BME280;50592;52.958;-7.470;2023-02-14T08:01:55;101120.69;;;9.34;100.00
64253;BME280;50592;52.958;-7.470;2023-02-14T08:04:21;101121.31;;;9.37;100.00
64253;BME280;50592;52.958;-7.470;2023-02-14T08:06:51;101127.19;;;9.41;100.00
64253;BME280;50592;52.958;-7.470;2023-02-14T08:09:17;101130.41;;;9.45;100.00
64253;BME280;50592;52.958;-7.470;2023-02-14T08:11:56;101129.34;;;9.47;100.00
64253;BME280;50592;52.958;-7.470;2023-02-14T08:14:41;101129.34;;;9.47;100.00
64253;BME280;50592;52.958;-7.470;2023-02-14T08:17:07;101119.38;;;9.51;100.00
64253;BME280;50592;52.958;-7.470;2023-02-14T08:19:35;101129.69;;;9.54;100.00
64253;BME280;50592;52.958;-7.470;2023-02-14T08:22:02;101119.03;;;9.55;100.00
64253;BME280;50592;52.958;-7.470;2023-02-14T08:24:27;101128.63;;;9.57;100.00
64253;BME280;50592;52.958;-7.470;2023-02-14T08:26:53;101125.84;;;9.58;100.00
64253;BME280;50592;52.958;-7.470;2023-02-14T08:29:19;101126.59;;;9.60;100.00
64253;BME280;50592;52.958;-7.470;2023-02-14T08:31:45;101129.34;;;9.59;100.00
64253;BME280;50592;52.958;-7.470;2023-02-14T08:34:12;101131.00;;;9.60;100.00
64253;BME280;50592;52.958;-7.470;2023-02-14T08:36:39;101124.75;;;9.61;100.00
64253;BME280;50592;52.958;-7.470;2023-02-14T08:39:06;101125.50;;;9.63;100.00
64253;BME280;50592;52.958;-7.470;2023-02-14T08:41:32;101126.34;;;9.63;100.00
64253;BME280;50592;52.958;-7.470;2023-02-14T08:43:58;101124.66;;;9.62;100.00
64253;BME280;50592;52.958;-7.470;2023-02-14T08:46:24;101114.94;;;9.63;100.00
64253;BME280;50592;52.958;-7.470;2023-02-14T08:48:50;101127.03;;;9.65;100.00
64253;BME280;50592;52.958;-7.470;2023-02-14T08:51:17;101124.28;;;9.67;100.00
64253;BME280;50592;52.958;-7.470;2023-02-14T08:53:43;101131.38;;;9.66;100.00
64253;BME280;50592;52.958;-7.470;2023-02-14T08:56:12;101123.22;;;9.70;100.00
64253;BME280;50592;52.958;-7.470;2023-02-14T08:58:39;101130.16;;;9.71;100.00
64253;BME280;50592;52.958;-7.470;2023-02-14T09:01:14;101128.94;;;9.75;100.00
64253;BME280;50592;52.958;-7.470;2023-02-14T09:03:40;101133.28;;;9.76;100.00
64253;BME280;50592;52.958;-7.470;2023-02-14T09:06:08;101134.94;;;9.77;100.00
64253;BME280;50592;52.958;-7.470;2023-02-14T09:08:38;101130.97;;;9.83;100.00
64253;BME280;50592;52.958;-7.470;2023-02-14T09:11:08;101139.75;;;9.83;100.00
64253;BME280;50592;52.958;-7.470;2023-02-14T09:13:34;101126.66;;;9.82;100.00
64253;BME280;50592;52.958;-7.470;2023-02-14T09:16:05;101128.34;;;9.83;100.00
64253;BME280;50592;52.958;-7.470;2023-02-14T09:18:31;101134.34;;;9.85;100.00
64253;BME280;50592;52.958;-7.470;2023-02-14T09:20:57;101136.97;;;9.85;100.00
64253;BME280;50592;52.958;-7.470;2023-02-14T09:23:23;101133.41;;;9.86;100.00
64253;BME280;50592;52.958;-7.470;2023-02-14T09:25:49;101134.09;;;9.88;100.00
64253;BME280;50592;52.958;-7.470;2023-02-14T09:28:15;101131.22;;;9.91;100.00
64253;BME280;50592;52.958;-7.470;2023-02-14T09:30:41;101140.59;;;9.95;100.00
64253;BME280;50592;52.958;-7.470;2023-02-14T09:33:06;101132.41;;;9.98;100.00
64253;BME280;50592;52.958;-7.470;2023-02-14T09:35:32;101131.56;;;9.98;100.00
64253;BME280;50592;52.958;-7.470;2023-02-14T09:37:58;101130.59;;;9.99;100.00
64253;BME280;50592;52.958;-7.470;2023-02-14T09:40:23;101124.25;;;10.01;100.00
64253;BME280;50592;52.958;-7.470;2023-02-14T09:43:10;101132.47;;;10.08;100.00
64253;BME280;50592;52.958;-7.470;2023-02-14T09:45:39;101130.81;;;10.07;100.00
64253;BME280;50592;52.958;-7.470;2023-02-14T09:48:30;101133.94;;;10.12;100.00
64253;BME280;50592;52.958;-7.470;2023-02-14T09:51:02;101132.28;;;10.11;100.00
64253;BME280;50592;52.958;-7.470;2023-02-14T10:01:42;101126.72;;;10.14;100.00
64253;BME280;50592;52.958;-7.470;2023-02-14T10:04:40;101138.47;;;10.22;100.00
64253;BME280;50592;52.958;-7.470;2023-02-14T10:07:35;101144.97;;;10.17;100.00
64253;BME280;50592;52.958;-7.470;2023-02-14T10:10:13;101143.53;;;10.13;100.00
64253;BME280;50592;52.958;-7.470;2023-02-14T10:15:31;101144.13;;;10.17;100.00
64253;BME280;50592;52.958;-7.470;2023-02-14T10:18:13;101149.41;;;10.17;100.00
64253;BME280;50592;52.958;-7.470;2023-02-14T10:20:48;101150.25;;;10.17;100.00
64253;BME280;50592;52.958;-7.470;2023-02-14T10:23:33;101151.81;;;10.20;100.00
64253;BME280;50592;52.958;-7.470;2023-02-14T10:26:06;101146.53;;;10.20;100.00
64253;BME280;50592;52.958;-7.470;2023-02-14T10:28:53;101149.28;;;10.18;100.00
64253;BME280;50592;52.958;-7.470;2023-02-14T10:31:26;101138.47;;;10.22;100.00
64253;BME280;50592;52.958;-7.470;2023-02-14T10:50:19;101132.03;;;10.47;100.00
64253;BME280;50592;52.958;-7.470;2023-02-14T10:55:56;101135.59;;;10.58;100.00
64253;BME280;50592;52.958;-7.470;2023-02-14T10:58:26;101128.38;;;10.60;100.00
64253;BME280;50592;52.958;-7.470;2023-02-14T11:01:13;101128.13;;;10.63;100.00
64253;BME280;50592;52.958;-7.470;2023-02-14T11:03:50;101122.84;;;10.63;100.00
64253;BME280;50592;52.958;-7.470;2023-02-14T11:06:17;101123.09;;;10.60;100.00
64253;BME280;50592;52.958;-7.470;2023-02-14T11:08:44;101123.81;;;10.62;100.00
64253;BME280;50592;52.958;-7.470;2023-02-14T11:11:22;101125.34;;;10.64;100.00
64253;BME280;50592;52.958;-7.470;2023-02-14T11:13:49;101117.56;;;10.63;100.00
64253;BME280;50592;52.958;-7.470;2023-02-14T11:21:40;101123.69;;;10.63;100.00
64253;BME280;50592;52.958;-7.470;2023-02-14T11:26:58;101119.94;;;10.66;100.00
64253;BME280;50592;52.958;-7.470;2023-02-14T11:29:28;101126.78;;;10.69;100.00
64253;BME280;50592;52.958;-7.470;2023-02-14T11:31:55;101131.09;;;10.70;100.00
64253;BME280;50592;52.958;-7.470;2023-02-14T11:34:30;101112.72;;;10.68;100.00
64253;BME280;50592;52.958;-7.470;2023-02-14T11:36:57;101119.41;;;10.72;100.00
64253;BME280;50592;52.958;-7.470;2023-02-14T11:39:28;101119.63;;;10.81;100.00
64253;BME280;50592;52.958;-7.470;2023-02-14T11:41:58;101115.06;;;10.83;100.00
64253;BME280;50592;52.958;-7.470;2023-02-14T11:44:27;101122.00;;;10.84;100.00
64253;BME280;50592;52.958;-7.470;2023-02-14T11:46:55;101114.66;;;10.87;100.00
64253;BME280;50592;52.958;-7.470;2023-02-14T11:49:31;101117.44;;;10.86;100.00
64253;BME280;50592;52.958;-7.470;2023-02-14T11:51:59;101116.91;;;10.92;100.00
64253;BME280;50592;52.958;-7.470;2023-02-14T11:54:39;101109.66;;;10.94;100.00
64253;BME280;50592;52.958;-7.470;2023-02-14T11:57:06;101119.56;;;10.92;100.00
64253;BME280;50592;52.958;-7.470;2023-02-14T12:00:03;101110.72;;;11.03;100.00
64253;BME280;50592;52.958;-7.470;2023-02-14T12:02:45;101099.59;;;11.09;100.00
64253;BME280;50592;52.958;-7.470;2023-02-14T12:05:34;101099.53;;;11.21;100.00
64253;BME280;50592;52.958;-7.470;2023-02-14T12:08:03;101081.88;;;11.31;100.00
64253;BME280;50592;52.958;-7.470;2023-02-14T12:10:34;101096.13;;;11.40;100.00
64253;BME280;50592;52.958;-7.470;2023-02-14T12:26:29;101062.94;;;11.97;100.00
64253;BME280;50592;52.958;-7.470;2023-02-14T12:31:52;101066.00;;;12.02;100.00
64253;BME280;50592;52.958;-7.470;2023-02-14T12:34:19;101068.53;;;12.03;100.00
64253;BME280;50592;52.958;-7.470;2023-02-14T12:37:09;101055.00;;;12.07;100.00
64253;BME280;50592;52.958;-7.470;2023-02-14T12:42:34;101057.78;;;12.05;100.00
64253;BME280;50592;52.958;-7.470;2023-02-14T12:50:32;101048.13;;;12.04;100.00
64253;BME280;50592;52.958;-7.470;2023-02-14T12:55:44;101037.41;;;12.06;100.00
64253;BME280;50592;52.958;-7.470;2023-02-14T12:58:22;101033.69;;;12.08;100.00
64253;BME280;50592;52.958;-7.470;2023-02-14T13:16:39;101002.97;;;12.35;100.00
64253;BME280;50592;52.958;-7.470;2023-02-14T13:20:35;101024.19;;;12.35;100.00
64253;BME280;50592;52.958;-7.470;2023-02-14T13:22:28;101021.94;;;12.40;100.00
64253;BME280;50592;52.958;-7.470;2023-02-14T13:25:05;101014.09;;;12.49;100.00
64253;BME280;50592;52.958;-7.470;2023-02-14T13:27:38;101013.13;;;12.50;100.00
64253;BME280;50592;52.958;-7.470;2023-02-14T13:32:44;101005.63;;;12.35;100.00
64253;BME280;50592;52.958;-7.470;2023-02-14T13:35:15;101010.38;;;12.32;100.00
64253;BME280;50592;52.958;-7.470;2023-02-14T13:37:50;101002.41;;;12.32;100.00
64253;BME280;50592;52.958;-7.470;2023-02-14T13:40:22;100997.97;;;12.32;100.00
64253;BME280;50592;52.958;-7.470;2023-02-14T13:42:51;101009.09;;;12.46;100.00
64253;BME280;50592;52.958;-7.470;2023-02-14T13:48:05;101000.25;;;12.55;100.00
64253;BME280;50592;52.958;-7.470;2023-02-14T13:50:33;100995.22;;;12.62;100.00
64253;BME280;50592;52.958;-7.470;2023-02-14T13:53:01;100996.94;;;12.53;100.00
64253;BME280;50592;52.958;-7.470;2023-02-14T13:55:33;100982.03;;;12.42;100.00
64253;BME280;50592;52.958;-7.470;2023-02-14T13:58:11;101000.06;;;12.28;100.00
64253;BME280;50592;52.958;-7.470;2023-02-14T14:00:47;101001.19;;;12.26;100.00
64253;BME280;50592;52.958;-7.470;2023-02-14T14:06:10;100996.31;;;12.11;100.00
64253;BME280;50592;52.958;-7.470;2023-02-14T14:08:41;101002.97;;;12.06;100.00
64253;BME280;50592;52.958;-7.470;2023-02-14T14:14:02;100996.13;;;12.03;100.00
64253;BME280;50592;52.958;-7.470;2023-02-14T14:16:33;100981.53;;;12.09;100.00
64253;BME280;50592;52.958;-7.470;2023-02-14T14:21:43;100989.16;;;12.22;100.00
64253;BME280;50592;52.958;-7.470;2023-02-14T14:24:50;100982.34;;;12.19;100.00
64253;BME280;50592;52.958;-7.470;2023-02-14T14:27:42;100981.38;;;12.20;100.00
64253;BME280;50592;52.958;-7.470;2023-02-14T14:30:29;100976.78;;;12.12;100.00
64253;BME280;50592;52.958;-7.470;2023-02-14T14:33:14;100977.91;;;12.10;100.00
64253;BME280;50592;52.958;-7.470;2023-02-14T14:35:58;100978.31;;;12.15;100.00
64253;BME280;50592;52.958;-7.470;2023-02-14T14:38:25;100969.25;;;12.18;100.00
64253;BME280;50592;52.958;-7.470;2023-02-14T14:40:51;100962.84;;;12.10;100.00
64253;BME280;50592;52.958;-7.470;2023-02-14T14:43:25;100969.50;;;12.04;100.00
64253;BME280;50592;52.958;-7.470;2023-02-14T14:45:52;100963.91;;;11.98;100.00
64253;BME280;50592;52.958;-7.470;2023-02-14T14:48:31;100953.19;;;11.99;100.00
64253;BME280;50592;52.958;-7.470;2023-02-14T14:50:58;100949.00;;;11.97;100.00
64253;BME280;50592;52.958;-7.470;2023-02-14T14:53:44;100944.13;;;12.02;100.00
64253;BME280;50592;52.958;-7.470;2023-02-14T14:56:28;100951.25;;;12.11;100.00
64253;BME280;50592;52.958;-7.470;2023-02-14T14:58:56;100937.16;;;12.11;100.00
64253;BME280;50592;52.958;-7.470;2023-02-14T15:01:36;100933.56;;;12.12;100.00
64253;BME280;50592;52.958;-7.470;2023-02-14T15:04:23;100935.66;;;12.08;100.00
64253;BME280;50592;52.958;-7.470;2023-02-14T15:06:50;100925.03;;;11.98;100.00
64253;BME280;50592;52.958;-7.470;2023-02-14T15:09:21;100918.78;;;11.89;100.00
64253;BME280;50592;52.958;-7.470;2023-02-14T15:11:48;100922.53;;;11.77;100.00